createdAt,value
2023-10-10T00:00:05.545Z,21.72
2023-10-10T00:01:11.121Z,21.73
2023-10-10T00:02:17.007Z,21.71
2023-10-10T00:03:23.421Z,21.71
2023-10-10T00:04:29.159Z,21.7
2023-10-10T00:05:34.797Z,21.71
2023-10-10T00:06:40.718Z,21.71
2023-10-10T00:07:46.459Z,21.7
2023-10-10T00:08:52.152Z,21.7
2023-10-10T00:09:57.692Z,21.71
2023-10-10T00:11:03.261Z,21.71
2023-10-10T00:12:08.924Z,21.7
2023-10-10T00:13:14.548Z,21.69
2023-10-10T00:14:20.363Z,21.69
2023-10-10T00:15:26.162Z,21.7
2023-10-10T00:16:31.721Z,21.69
2023-10-10T00:17:37.286Z,21.7
2023-10-10T00:18:42.994Z,21.7
2023-10-10T00:19:48.540Z,21.71
2023-10-10T00:20:54.233Z,21.69
2023-10-10T00:21:59.807Z,21.69
2023-10-10T00:23:05.369Z,21.69
2023-10-10T00:24:10.998Z,21.69
2023-10-10T00:25:16.550Z,21.67
2023-10-10T00:26:22.220Z,21.68
2023-10-10T00:27:27.894Z,21.68
2023-10-10T00:28:33.402Z,21.67
2023-10-10T00:29:38.964Z,21.67
2023-10-10T00:30:44.943Z,21.68
2023-10-10T00:31:50.509Z,21.68
2023-10-10T00:32:56.188Z,21.69
2023-10-10T00:34:01.801Z,21.69
2023-10-10T00:35:07.415Z,21.69
2023-10-10T00:36:13.614Z,21.68
2023-10-10T00:37:19.152Z,21.69
2023-10-10T00:38:24.773Z,21.69
2023-10-10T00:39:30.522Z,21.68
2023-10-10T00:40:36.089Z,21.68
2023-10-10T00:41:41.661Z,21.67
2023-10-10T00:42:47.183Z,21.67
2023-10-10T00:43:52.750Z,21.66
2023-10-10T00:44:58.381Z,21.68
2023-10-10T00:46:03.931Z,21.68
2023-10-10T00:47:09.479Z,21.69
2023-10-10T00:48:15.361Z,21.68
2023-10-10T00:49:21.334Z,21.68
2023-10-10T00:50:27.094Z,21.67
2023-10-10T00:51:32.858Z,21.67
2023-10-10T00:52:38.456Z,21.67
2023-10-10T00:53:43.990Z,21.67
2023-10-10T00:54:49.529Z,21.67
2023-10-10T00:55:55.099Z,21.67
2023-10-10T00:57:00.933Z,21.67
2023-10-10T00:58:06.657Z,21.67
2023-10-10T00:59:12.254Z,21.68
2023-10-10T01:00:18.677Z,21.68
2023-10-10T01:01:24.277Z,21.67
2023-10-10T01:02:29.970Z,21.66
2023-10-10T01:03:35.989Z,21.66
2023-10-10T01:04:42.061Z,21.65
2023-10-10T01:05:47.817Z,21.65
2023-10-10T01:06:53.350Z,21.65
2023-10-10T01:07:58.884Z,21.65
2023-10-10T01:09:04.746Z,21.64
2023-10-10T01:10:10.265Z,21.64
2023-10-10T01:11:15.893Z,21.64
2023-10-10T01:12:21.518Z,21.64
2023-10-10T01:13:27.057Z,21.63
2023-10-10T01:14:32.767Z,21.63
2023-10-10T01:15:38.424Z,21.63
2023-10-10T01:16:44.109Z,21.63
2023-10-10T01:17:49.753Z,21.64
2023-10-10T01:18:55.498Z,21.62
2023-10-10T01:20:01.072Z,21.63
2023-10-10T01:21:06.777Z,21.64
2023-10-10T01:22:12.320Z,21.64
2023-10-10T01:23:17.933Z,21.63
2023-10-10T01:24:23.531Z,21.63
2023-10-10T01:25:29.060Z,21.64
2023-10-10T01:26:34.599Z,21.64
2023-10-10T01:27:40.195Z,21.64
2023-10-10T01:28:45.707Z,21.64
2023-10-10T01:29:51.220Z,21.64
2023-10-10T01:30:56.826Z,21.64
2023-10-10T01:32:03.279Z,21.64
2023-10-10T01:33:08.905Z,21.63
2023-10-10T01:34:14.637Z,21.63
2023-10-10T01:35:20.196Z,21.61
2023-10-10T01:36:25.960Z,21.61
2023-10-10T01:37:31.538Z,21.6
2023-10-10T01:38:37.064Z,21.6
2023-10-10T01:39:42.586Z,21.59
2023-10-10T01:40:48.132Z,21.59
2023-10-10T01:41:53.841Z,21.58
2023-10-10T01:42:59.417Z,21.58
2023-10-10T01:44:05.171Z,21.59
2023-10-10T01:45:11.134Z,21.58
2023-10-10T01:46:16.943Z,21.58
2023-10-10T01:47:22.690Z,21.57
2023-10-10T01:48:28.408Z,21.57
2023-10-10T01:49:33.947Z,21.57
2023-10-10T01:50:40.638Z,21.56
2023-10-10T01:51:46.191Z,21.56
2023-10-10T01:52:51.722Z,21.56
2023-10-10T01:53:57.301Z,21.57
2023-10-10T01:55:02.822Z,21.57
2023-10-10T01:56:08.373Z,21.57
2023-10-10T01:57:14.117Z,21.57
2023-10-10T01:58:19.651Z,21.58
2023-10-10T01:59:25.302Z,21.59
2023-10-10T02:00:31.322Z,21.59
2023-10-10T02:01:37.077Z,21.6
2023-10-10T02:02:42.844Z,21.6
2023-10-10T02:03:48.944Z,21.6
2023-10-10T02:04:55.124Z,21.6
2023-10-10T02:06:00.824Z,21.59
2023-10-10T02:07:06.343Z,21.59
2023-10-10T02:08:11.936Z,21.59
2023-10-10T02:09:17.636Z,21.59
2023-10-10T02:10:23.274Z,21.59
2023-10-10T02:11:28.805Z,21.59
2023-10-10T02:12:34.442Z,21.6
2023-10-10T02:13:40.005Z,21.59
2023-10-10T02:14:45.711Z,21.59
2023-10-10T02:15:51.330Z,21.6
2023-10-10T02:16:59.438Z,21.6
2023-10-10T02:18:05.141Z,21.6
2023-10-10T02:19:10.845Z,21.6
2023-10-10T02:20:19.006Z,21.59
2023-10-10T02:21:24.744Z,21.59
2023-10-10T02:22:30.263Z,21.58
2023-10-10T02:23:35.864Z,21.59
2023-10-10T02:24:41.569Z,21.59
2023-10-10T02:25:47.156Z,21.58
2023-10-10T02:26:52.894Z,21.58
2023-10-10T02:27:58.485Z,21.57
2023-10-10T02:29:05.036Z,21.58
2023-10-10T02:30:10.682Z,21.57
2023-10-10T02:31:16.255Z,21.57
2023-10-10T02:32:22.078Z,21.57
2023-10-10T02:33:27.733Z,21.56
2023-10-10T02:34:33.251Z,21.57
2023-10-10T02:35:38.796Z,21.57
2023-10-10T02:36:44.360Z,21.55
2023-10-10T02:37:49.916Z,21.56
2023-10-10T02:38:55.545Z,21.55
2023-10-10T02:40:01.132Z,21.55
2023-10-10T02:41:06.747Z,21.54
2023-10-10T02:42:12.451Z,21.54
2023-10-10T02:43:17.980Z,21.54
2023-10-10T02:44:23.548Z,21.53
2023-10-10T02:45:29.206Z,21.54
2023-10-10T02:46:34.761Z,21.53
2023-10-10T02:47:40.851Z,21.53
2023-10-10T02:48:46.712Z,21.53
2023-10-10T02:49:52.255Z,21.54
2023-10-10T02:51:00.603Z,21.54
2023-10-10T02:52:06.337Z,21.52
2023-10-10T02:53:12.215Z,21.53
2023-10-10T02:54:17.818Z,21.52
2023-10-10T02:55:23.404Z,21.53
2023-10-10T02:56:29.000Z,21.53
2023-10-10T02:57:34.722Z,21.53
2023-10-10T02:58:40.263Z,21.53
2023-10-10T02:59:45.787Z,21.52
2023-10-10T03:00:51.351Z,21.53
2023-10-10T03:01:56.992Z,21.52
2023-10-10T03:03:03.133Z,21.53
2023-10-10T03:04:09.422Z,21.53
2023-10-10T03:05:15.389Z,21.52
2023-10-10T03:06:21.397Z,21.52
2023-10-10T03:07:26.922Z,21.52
2023-10-10T03:08:32.482Z,21.52
2023-10-10T03:09:38.182Z,21.52
2023-10-10T03:10:43.719Z,21.52
2023-10-10T03:11:49.244Z,21.52
2023-10-10T03:12:54.902Z,21.52
2023-10-10T03:14:00.540Z,21.52
2023-10-10T03:15:06.116Z,21.52
2023-10-10T03:16:11.654Z,21.52
2023-10-10T03:17:17.309Z,21.52
2023-10-10T03:18:22.923Z,21.51
2023-10-10T03:19:28.517Z,21.52
2023-10-10T03:20:34.170Z,21.53
2023-10-10T03:21:39.857Z,21.54
2023-10-10T03:22:45.412Z,21.55
2023-10-10T03:23:51.028Z,21.56
2023-10-10T03:24:56.578Z,21.56
2023-10-10T03:26:02.105Z,21.57
2023-10-10T03:27:07.746Z,21.57
2023-10-10T03:28:13.313Z,21.58
2023-10-10T03:29:18.837Z,21.58
2023-10-10T03:30:24.585Z,21.59
2023-10-10T03:31:30.115Z,21.59
2023-10-10T03:32:35.825Z,21.6
2023-10-10T03:33:41.581Z,21.6
2023-10-10T03:34:47.302Z,21.61
2023-10-10T03:35:52.832Z,21.6
2023-10-10T03:36:58.376Z,21.61
2023-10-10T03:38:03.932Z,21.62
2023-10-10T03:39:09.645Z,21.61
2023-10-10T03:40:15.181Z,21.63
2023-10-10T03:41:21.099Z,21.63
2023-10-10T03:42:26.898Z,21.64
2023-10-10T03:43:32.410Z,21.64
2023-10-10T03:44:37.989Z,21.65
2023-10-10T03:45:43.795Z,21.64
2023-10-10T03:46:49.485Z,21.65
2023-10-10T03:47:55.052Z,21.65
2023-10-10T03:49:00.706Z,21.66
2023-10-10T03:50:08.605Z,21.65
2023-10-10T03:51:18.090Z,21.66
2023-10-10T03:52:23.631Z,21.67
2023-10-10T03:53:29.207Z,21.68
2023-10-10T03:54:34.880Z,21.67
2023-10-10T03:55:40.435Z,21.67
2023-10-10T03:56:46.163Z,21.69
2023-10-10T03:57:51.972Z,21.76
2023-10-10T03:58:57.516Z,21.78
2023-10-10T04:00:03.466Z,21.79
2023-10-10T04:01:09.327Z,21.8
2023-10-10T04:02:15.925Z,21.74
2023-10-10T04:03:21.765Z,21.69
2023-10-10T04:04:27.686Z,21.69
2023-10-10T04:05:33.385Z,21.69
2023-10-10T04:06:39.094Z,21.7
2023-10-10T04:07:44.656Z,21.72
2023-10-10T04:08:50.279Z,21.75
2023-10-10T04:09:55.768Z,21.79
2023-10-10T04:11:01.301Z,21.83
2023-10-10T04:12:06.979Z,21.86
2023-10-10T04:13:12.514Z,21.91
2023-10-10T04:14:18.164Z,21.95
2023-10-10T04:15:24.096Z,21.99
2023-10-10T04:16:29.694Z,22.03
2023-10-10T04:17:35.541Z,22.06
2023-10-10T04:18:41.411Z,22.09
2023-10-10T04:19:47.075Z,22.11
2023-10-10T04:20:52.616Z,22.11
2023-10-10T04:21:58.158Z,22.14
2023-10-10T04:23:03.725Z,22.16
2023-10-10T04:24:09.342Z,22.17
2023-10-10T04:25:14.846Z,22.18
2023-10-10T04:26:20.430Z,22.18
2023-10-10T04:27:26.157Z,22.18
2023-10-10T04:28:31.728Z,22.18
2023-10-10T04:29:38.337Z,22.19
2023-10-10T04:30:44.073Z,22.19
2023-10-10T04:31:49.661Z,22.2
2023-10-10T04:32:55.388Z,22.19
2023-10-10T04:34:01.279Z,22.17
2023-10-10T04:35:06.852Z,22.15
2023-10-10T04:36:12.506Z,22.15
2023-10-10T04:37:18.024Z,22.13
2023-10-10T04:38:23.625Z,22.12
2023-10-10T04:39:29.238Z,22.11
2023-10-10T04:40:34.818Z,22.1
2023-10-10T04:41:40.498Z,22.07
2023-10-10T04:42:46.197Z,22.07
2023-10-10T04:43:53.674Z,22.04
2023-10-10T04:45:00.270Z,22.04
2023-10-10T04:46:05.836Z,22.02
2023-10-10T04:47:11.539Z,22.01
2023-10-10T04:48:17.252Z,21.99
2023-10-10T04:49:22.924Z,21.98
2023-10-10T04:50:28.615Z,21.97
2023-10-10T04:51:35.522Z,21.97
2023-10-10T04:52:43.261Z,21.98
2023-10-10T04:53:49.069Z,21.98
2023-10-10T04:54:54.588Z,21.96
2023-10-10T04:56:00.164Z,21.96
2023-10-10T04:57:05.771Z,21.95
2023-10-10T04:58:14.541Z,21.94
2023-10-10T04:59:20.138Z,21.94
2023-10-10T05:00:25.761Z,21.92
2023-10-10T05:01:31.337Z,21.91
2023-10-10T05:02:37.064Z,21.9
2023-10-10T05:03:43.351Z,21.89
2023-10-10T05:04:49.143Z,21.89
2023-10-10T05:05:54.715Z,21.88
2023-10-10T05:07:00.236Z,21.87
2023-10-10T05:08:05.766Z,21.86
2023-10-10T05:09:11.585Z,21.85
2023-10-10T05:10:17.197Z,21.85
2023-10-10T05:11:22.740Z,21.84
2023-10-10T05:12:28.410Z,21.84
2023-10-10T05:13:33.972Z,21.84
2023-10-10T05:14:39.548Z,21.83
2023-10-10T05:15:45.296Z,21.82
2023-10-10T05:16:50.912Z,21.82
2023-10-10T05:17:56.528Z,21.81
2023-10-10T05:19:02.411Z,21.8
2023-10-10T05:20:07.997Z,21.79
2023-10-10T05:21:13.619Z,21.79
2023-10-10T05:22:19.131Z,21.78
2023-10-10T05:23:24.679Z,21.77
2023-10-10T05:24:30.366Z,21.77
2023-10-10T05:25:35.862Z,21.76
2023-10-10T05:26:41.590Z,21.75
2023-10-10T05:27:47.216Z,21.73
2023-10-10T05:28:52.778Z,21.72
2023-10-10T05:29:59.347Z,21.72
2023-10-10T05:31:05.087Z,21.72
2023-10-10T05:32:10.800Z,21.71
2023-10-10T05:33:16.499Z,21.71
2023-10-10T05:34:22.146Z,21.7
2023-10-10T05:35:27.680Z,21.7
2023-10-10T05:36:33.450Z,21.7
2023-10-10T05:37:39.055Z,21.7
2023-10-10T05:38:44.582Z,21.69
2023-10-10T05:39:50.300Z,21.68
2023-10-10T05:40:55.799Z,21.66
2023-10-10T05:42:04.383Z,21.67
2023-10-10T05:43:09.966Z,21.67
2023-10-10T05:44:15.779Z,21.65
2023-10-10T05:45:22.291Z,21.64
2023-10-10T05:46:27.870Z,21.62
2023-10-10T05:47:33.557Z,21.61
2023-10-10T05:48:39.255Z,21.6
2023-10-10T05:49:44.751Z,21.59
2023-10-10T05:50:50.413Z,21.58
2023-10-10T05:51:56.002Z,21.6
2023-10-10T05:53:01.596Z,21.6
2023-10-10T05:54:07.363Z,21.58
2023-10-10T05:55:13.983Z,21.57
2023-10-10T05:56:19.844Z,21.55
2023-10-10T05:57:26.565Z,21.56
2023-10-10T05:58:32.070Z,21.54
2023-10-10T05:59:37.655Z,21.52
2023-10-10T06:00:43.368Z,21.52
2023-10-10T06:01:49.040Z,21.51
2023-10-10T06:02:54.727Z,21.5
2023-10-10T06:04:00.539Z,21.5
2023-10-10T06:05:06.430Z,21.5
2023-10-10T06:06:12.114Z,21.5
2023-10-10T06:07:18.123Z,21.49
2023-10-10T06:08:23.679Z,21.47
2023-10-10T06:09:29.330Z,21.48
2023-10-10T06:10:34.839Z,21.47
2023-10-10T06:11:40.487Z,21.47
2023-10-10T06:12:46.168Z,21.45
2023-10-10T06:13:51.707Z,21.44
2023-10-10T06:14:57.223Z,21.44
2023-10-10T06:16:02.746Z,21.44
2023-10-10T06:17:08.535Z,21.44
2023-10-10T06:18:14.724Z,21.43
2023-10-10T06:19:20.597Z,21.43
2023-10-10T06:20:26.788Z,21.43
2023-10-10T06:21:32.658Z,21.44
2023-10-10T06:22:38.284Z,21.44
2023-10-10T06:23:43.887Z,21.43
2023-10-10T06:24:50.089Z,21.43
2023-10-10T06:25:55.673Z,21.42
2023-10-10T06:27:01.225Z,21.41
2023-10-10T06:28:06.805Z,21.41
2023-10-10T06:29:12.344Z,21.42
2023-10-10T06:30:18.019Z,21.41
2023-10-10T06:31:23.684Z,21.42
2023-10-10T06:32:29.516Z,21.41
2023-10-10T06:33:35.368Z,21.41
2023-10-10T06:34:41.125Z,21.39
2023-10-10T06:35:46.658Z,21.38
2023-10-10T06:36:52.226Z,21.38
2023-10-10T06:37:57.771Z,21.38
2023-10-10T06:39:03.311Z,21.37
2023-10-10T06:40:09.487Z,21.38
2023-10-10T06:41:15.067Z,21.4
2023-10-10T06:42:20.763Z,21.45
2023-10-10T06:43:26.300Z,21.49
2023-10-10T06:44:31.844Z,21.5
2023-10-10T06:45:38.152Z,21.51
2023-10-10T06:46:43.816Z,21.52
2023-10-10T06:47:49.404Z,21.54
2023-10-10T06:48:55.197Z,21.54
2023-10-10T06:50:02.775Z,21.56
2023-10-10T06:51:08.932Z,21.59
2023-10-10T06:52:14.451Z,21.62
2023-10-10T06:53:20.044Z,21.64
2023-10-10T06:54:25.809Z,21.65
2023-10-10T06:55:31.920Z,21.68
2023-10-10T06:56:37.543Z,21.7
2023-10-10T06:57:45.382Z,21.73
2023-10-10T06:58:51.097Z,21.75
2023-10-10T06:59:56.672Z,21.75
2023-10-10T07:01:02.249Z,21.75
2023-10-10T07:02:07.918Z,21.77
2023-10-10T07:03:13.574Z,21.77
2023-10-10T07:04:19.449Z,21.77
2023-10-10T07:05:25.201Z,21.78
2023-10-10T07:06:31.041Z,21.78
2023-10-10T07:07:36.595Z,21.76
2023-10-10T07:08:42.212Z,21.76
2023-10-10T07:09:47.948Z,21.75
2023-10-10T07:10:53.524Z,21.75
2023-10-10T07:11:59.058Z,21.74
2023-10-10T07:13:04.668Z,21.74
2023-10-10T07:14:10.283Z,21.73
2023-10-10T07:15:16.545Z,21.73
2023-10-10T07:16:22.423Z,21.72
2023-10-10T07:17:28.183Z,21.73
2023-10-10T07:18:34.066Z,21.73
2023-10-10T07:19:39.777Z,21.73
2023-10-10T07:20:45.437Z,21.73
2023-10-10T07:21:51.405Z,21.73
2023-10-10T07:22:57.036Z,21.73
2023-10-10T07:24:02.537Z,21.73
2023-10-10T07:25:08.139Z,21.72
2023-10-10T07:26:14.053Z,21.72
2023-10-10T07:28:25.284Z,21.73
2023-10-10T07:29:30.956Z,21.72
2023-10-10T07:30:36.625Z,21.71
2023-10-10T07:31:42.203Z,21.71
2023-10-10T07:32:47.834Z,21.7
2023-10-10T07:33:53.692Z,21.7
2023-10-10T07:34:59.289Z,21.69
2023-10-10T07:36:04.867Z,21.69
2023-10-10T07:37:10.448Z,21.68
2023-10-10T07:38:16.008Z,21.68
2023-10-10T07:39:23.958Z,21.69
2023-10-10T07:40:29.572Z,21.65
2023-10-10T07:41:35.360Z,21.67
2023-10-10T07:42:41.002Z,21.68
2023-10-10T07:43:46.581Z,21.7
2023-10-10T07:44:52.145Z,21.69
2023-10-10T07:45:57.703Z,21.65
2023-10-10T07:47:03.251Z,21.64
2023-10-10T07:48:09.154Z,21.63
2023-10-10T07:49:17.450Z,21.61
2023-10-10T07:50:23.035Z,21.6
2023-10-10T07:51:28.685Z,21.6
2023-10-10T07:52:34.401Z,21.59
2023-10-10T07:53:39.926Z,21.59
2023-10-10T07:54:45.512Z,21.58
2023-10-10T07:55:51.070Z,21.58
2023-10-10T07:56:56.614Z,21.58
2023-10-10T07:58:05.476Z,21.57
2023-10-10T07:59:11.049Z,21.57
2023-10-10T08:00:16.656Z,21.56
2023-10-10T08:01:22.330Z,21.56
2023-10-10T08:02:28.114Z,21.55
2023-10-10T08:03:34.198Z,21.55
2023-10-10T08:04:40.048Z,21.54
2023-10-10T08:05:45.676Z,21.54
2023-10-10T08:06:51.326Z,21.53
2023-10-10T08:07:56.839Z,21.53
2023-10-10T08:09:02.601Z,21.53
2023-10-10T08:10:08.115Z,21.53
2023-10-10T08:11:13.728Z,21.52
2023-10-10T08:12:19.438Z,21.51
2023-10-10T08:13:24.957Z,21.5
2023-10-10T08:14:30.537Z,21.5
2023-10-10T08:15:36.225Z,21.51
2023-10-10T08:16:41.916Z,21.51
2023-10-10T08:17:47.688Z,21.5
2023-10-10T08:18:53.604Z,21.49
2023-10-10T08:19:59.212Z,21.49
2023-10-10T08:21:04.755Z,21.48
2023-10-10T08:22:10.277Z,21.47
2023-10-10T08:23:15.892Z,21.47
2023-10-10T08:24:21.648Z,21.47
2023-10-10T08:25:27.375Z,21.45
2023-10-10T08:26:32.935Z,21.46
2023-10-10T08:27:38.596Z,21.45
2023-10-10T08:28:44.201Z,21.44
2023-10-10T08:29:51.401Z,21.45
2023-10-10T08:30:57.193Z,21.44
2023-10-10T08:32:02.859Z,21.44
2023-10-10T08:33:08.523Z,21.44
2023-10-10T08:34:14.569Z,21.43
2023-10-10T08:35:20.740Z,21.43
2023-10-10T08:36:26.417Z,21.43
2023-10-10T08:37:31.953Z,21.43
2023-10-10T08:38:37.714Z,21.44
2023-10-10T08:39:43.358Z,21.42
2023-10-10T08:40:48.886Z,21.41
2023-10-10T08:41:54.447Z,21.4
2023-10-10T08:43:00.014Z,21.41
2023-10-10T08:44:05.578Z,21.41
2023-10-10T08:45:11.169Z,21.4
2023-10-10T08:46:16.703Z,21.4
2023-10-10T08:47:22.334Z,21.4
2023-10-10T08:48:28.089Z,21.4
2023-10-10T08:49:33.947Z,21.4
2023-10-10T08:50:39.761Z,21.39
2023-10-10T08:51:45.470Z,21.39
2023-10-10T08:52:51.056Z,21.4
2023-10-10T08:53:56.664Z,21.4
2023-10-10T08:55:02.413Z,21.39
2023-10-10T08:56:08.119Z,21.38
2023-10-10T08:57:13.847Z,21.4
2023-10-10T08:58:19.406Z,21.39
2023-10-10T08:59:24.976Z,21.37
2023-10-10T09:00:30.631Z,21.36
2023-10-10T09:01:36.557Z,21.35
2023-10-10T09:02:42.426Z,21.36
2023-10-10T09:03:48.457Z,21.35
2023-10-10T09:04:55.297Z,21.35
2023-10-10T09:06:00.842Z,21.34
2023-10-10T09:07:06.363Z,21.34
2023-10-10T09:08:11.939Z,21.34
2023-10-10T09:09:17.607Z,21.34
2023-10-10T09:10:23.113Z,21.33
2023-10-10T09:11:28.636Z,21.34
2023-10-10T09:12:38.139Z,21.34
2023-10-10T09:13:43.705Z,21.36
2023-10-10T09:14:49.265Z,21.36
2023-10-10T09:15:55.066Z,21.34
2023-10-10T09:17:00.741Z,21.35
2023-10-10T09:18:06.412Z,21.35
2023-10-10T09:19:12.593Z,21.36
2023-10-10T09:20:18.831Z,21.36
2023-10-10T09:21:24.421Z,21.37
2023-10-10T09:22:30.027Z,21.34
2023-10-10T09:23:35.568Z,21.34
2023-10-10T09:24:41.230Z,21.37
2023-10-10T09:25:51.968Z,21.38
2023-10-10T09:26:57.582Z,21.36
2023-10-10T09:28:03.137Z,21.37
2023-10-10T09:29:08.697Z,21.35
2023-10-10T09:30:14.352Z,21.33
2023-10-10T09:31:19.922Z,21.33
2023-10-10T09:32:25.692Z,21.34
2023-10-10T09:33:31.575Z,21.33
2023-10-10T09:34:37.379Z,21.34
2023-10-10T09:35:42.906Z,21.3
2023-10-10T09:36:48.551Z,21.28
2023-10-10T09:37:56.131Z,21.27
2023-10-10T09:39:04.372Z,21.27
2023-10-10T09:40:09.913Z,21.28
2023-10-10T09:41:15.495Z,21.27
2023-10-10T09:42:21.115Z,21.28
2023-10-10T09:43:26.652Z,21.3
2023-10-10T09:44:32.199Z,21.28
2023-10-10T09:45:37.866Z,21.3
2023-10-10T09:46:43.406Z,21.28
2023-10-10T09:47:49.213Z,21.33
2023-10-10T09:48:55.281Z,21.36
2023-10-10T09:50:00.988Z,21.33
2023-10-10T09:51:06.575Z,21.32
2023-10-10T09:52:12.283Z,21.35
2023-10-10T09:53:17.968Z,21.36
2023-10-10T09:54:24.262Z,21.36
2023-10-10T09:55:30.125Z,21.33
2023-10-10T09:56:35.756Z,21.35
2023-10-10T09:57:41.565Z,21.34
2023-10-10T09:58:47.143Z,21.35
2023-10-10T09:59:52.755Z,21.3
2023-10-10T10:00:58.316Z,21.34
2023-10-10T10:02:03.943Z,21.34
2023-10-10T10:03:09.868Z,21.35
2023-10-10T10:04:15.747Z,21.35
2023-10-10T10:05:21.561Z,21.34
2023-10-10T10:06:27.136Z,21.33
2023-10-10T10:07:32.671Z,21.34
2023-10-10T10:08:38.291Z,21.31
2023-10-10T10:09:46.474Z,21.31
2023-10-10T10:10:52.016Z,21.31
2023-10-10T10:11:57.564Z,21.34
2023-10-10T10:13:03.090Z,21.35
2023-10-10T10:14:14.983Z,21.37
2023-10-10T10:15:25.554Z,21.38
2023-10-10T10:16:31.158Z,21.38
2023-10-10T10:17:36.948Z,21.37
2023-10-10T10:18:42.733Z,21.38
2023-10-10T10:19:49.847Z,21.37
2023-10-10T10:20:56.739Z,21.37
2023-10-10T10:22:02.289Z,21.38
2023-10-10T10:23:07.856Z,21.4
2023-10-10T10:24:13.423Z,21.39
2023-10-10T10:25:19.842Z,21.39
2023-10-10T10:26:25.367Z,21.4
2023-10-10T10:27:30.936Z,21.4
2023-10-10T10:28:36.980Z,21.4
2023-10-10T10:29:42.864Z,21.39
2023-10-10T10:30:50.499Z,21.41
2023-10-10T10:31:56.504Z,21.41
2023-10-10T10:33:02.244Z,21.41
2023-10-10T10:34:08.097Z,21.42
2023-10-10T10:35:13.722Z,21.43
2023-10-10T10:36:19.399Z,21.44
2023-10-10T10:37:25.046Z,21.43
2023-10-10T10:38:30.636Z,21.44
2023-10-10T10:39:36.280Z,21.43
2023-10-10T10:40:41.913Z,21.44
2023-10-10T10:41:47.596Z,21.43
2023-10-10T10:42:53.334Z,21.43
2023-10-10T10:43:58.956Z,21.43
2023-10-10T10:45:04.592Z,21.43
2023-10-10T10:46:10.257Z,21.42
2023-10-10T10:47:16.926Z,21.41
2023-10-10T10:48:23.661Z,21.42
2023-10-10T10:49:29.429Z,21.41
2023-10-10T10:50:35.053Z,21.42
2023-10-10T10:51:40.693Z,21.41
2023-10-10T10:52:46.317Z,21.41
2023-10-10T10:53:52.222Z,21.4
2023-10-10T10:54:57.909Z,21.41
2023-10-10T10:56:03.530Z,21.41
2023-10-10T10:57:09.187Z,21.4
2023-10-10T10:58:14.872Z,21.4
2023-10-10T10:59:20.610Z,21.39
2023-10-10T11:00:26.985Z,21.38
2023-10-10T11:01:32.699Z,21.38
2023-10-10T11:02:38.481Z,21.37
2023-10-10T11:03:44.325Z,21.37
2023-10-10T11:04:50.084Z,21.37
2023-10-10T11:05:56.193Z,21.36
2023-10-10T11:07:01.855Z,21.36
2023-10-10T11:08:07.379Z,21.36
2023-10-10T11:09:12.960Z,21.36
2023-10-10T11:10:18.668Z,21.35
2023-10-10T11:11:24.351Z,21.35
2023-10-10T11:12:30.023Z,21.34
2023-10-10T11:13:37.783Z,21.33
2023-10-10T11:14:43.372Z,21.34
2023-10-10T11:15:49.365Z,21.33
2023-10-10T11:16:54.986Z,21.34
2023-10-10T11:18:00.733Z,21.34
2023-10-10T11:19:06.550Z,21.33
2023-10-10T11:20:12.157Z,21.33
2023-10-10T11:21:17.754Z,21.34
2023-10-10T11:22:23.422Z,21.35
2023-10-10T11:23:28.963Z,21.36
2023-10-10T11:24:34.539Z,21.36
2023-10-10T11:25:40.301Z,21.37
2023-10-10T11:26:45.850Z,21.37
2023-10-10T11:27:51.467Z,21.37
2023-10-10T11:28:57.395Z,21.37
2023-10-10T11:30:03.082Z,21.37
2023-10-10T11:31:08.973Z,21.37
2023-10-10T11:32:14.927Z,21.37
2023-10-10T11:33:20.739Z,21.37
2023-10-10T11:34:26.655Z,21.36
2023-10-10T11:35:32.494Z,21.37
2023-10-10T11:36:38.175Z,21.37
2023-10-10T11:37:44.037Z,21.37
2023-10-10T11:38:49.610Z,21.37
2023-10-10T11:39:55.442Z,21.36
2023-10-10T11:41:00.985Z,21.35
2023-10-10T11:42:06.577Z,21.34
2023-10-10T11:43:12.144Z,21.33
2023-10-10T11:44:17.772Z,21.33
2023-10-10T11:45:23.539Z,21.33
2023-10-10T11:46:29.458Z,21.33
2023-10-10T11:47:35.224Z,21.34
2023-10-10T11:48:40.990Z,21.34
2023-10-10T11:49:46.600Z,21.33
2023-10-10T11:50:52.338Z,21.33
2023-10-10T11:51:58.016Z,21.34
2023-10-10T11:53:03.535Z,21.34
2023-10-10T11:54:09.090Z,21.32
2023-10-10T11:55:14.644Z,21.33
2023-10-10T11:56:20.166Z,21.32
2023-10-10T11:57:25.823Z,21.31
2023-10-10T11:58:31.364Z,21.32
2023-10-10T11:59:36.894Z,21.31
2023-10-10T12:00:42.574Z,21.3
2023-10-10T12:01:48.255Z,21.3
2023-10-10T12:02:54.227Z,21.29
2023-10-10T12:04:00.093Z,21.28
2023-10-10T12:05:05.764Z,21.28
2023-10-10T12:06:11.287Z,21.28
2023-10-10T12:07:17.467Z,21.27
2023-10-10T12:08:23.034Z,21.29
2023-10-10T12:09:29.313Z,21.29
2023-10-10T12:10:35.100Z,21.27
2023-10-10T12:11:40.717Z,21.27
2023-10-10T12:12:46.398Z,21.28
2023-10-10T12:13:52.305Z,21.27
2023-10-10T12:14:58.500Z,21.28
2023-10-10T12:16:04.265Z,21.27
2023-10-10T12:17:10.026Z,21.26
2023-10-10T12:18:15.597Z,21.25
2023-10-10T12:19:21.405Z,21.25
2023-10-10T12:20:26.958Z,21.26
2023-10-10T12:21:32.586Z,21.26
2023-10-10T12:22:38.112Z,21.25
2023-10-10T12:23:43.644Z,21.25
2023-10-10T12:24:49.295Z,21.25
2023-10-10T12:25:54.830Z,21.26
2023-10-10T12:27:00.434Z,21.26
2023-10-10T12:28:06.114Z,21.26
2023-10-10T12:29:11.643Z,21.26
2023-10-10T12:30:17.280Z,21.26
2023-10-10T12:31:23.090Z,21.24
2023-10-10T12:32:29.139Z,21.23
2023-10-10T12:33:35.226Z,21.23
2023-10-10T12:34:40.868Z,21.24
2023-10-10T12:35:46.369Z,21.24
2023-10-10T12:36:52.126Z,21.25
2023-10-10T12:37:57.624Z,21.26
2023-10-10T12:39:03.156Z,21.26
2023-10-10T12:40:09.053Z,21.24
2023-10-10T12:41:14.852Z,21.25
2023-10-10T12:42:20.441Z,21.26
2023-10-10T12:43:25.982Z,21.24
2023-10-10T12:44:31.585Z,21.24
2023-10-10T12:45:37.214Z,21.25
2023-10-10T12:46:42.932Z,21.26
2023-10-10T12:47:48.642Z,21.24
2023-10-10T12:48:54.636Z,21.25
2023-10-10T12:50:00.276Z,21.25
2023-10-10T12:51:05.880Z,21.24
2023-10-10T12:52:11.576Z,21.24
2023-10-10T12:53:17.422Z,21.24
2023-10-10T12:54:23.163Z,21.22
2023-10-10T12:55:28.737Z,21.23
2023-10-10T12:56:34.307Z,21.23
2023-10-10T12:57:39.875Z,21.23
2023-10-10T12:58:45.426Z,21.23
2023-10-10T12:59:51.023Z,21.21
2023-10-10T13:00:56.809Z,21.23
2023-10-10T13:02:02.482Z,21.23
2023-10-10T13:03:08.426Z,21.22
2023-10-10T13:04:14.570Z,21.23
2023-10-10T13:05:20.780Z,21.22
2023-10-10T13:06:26.465Z,21.22
2023-10-10T13:07:32.016Z,21.21
2023-10-10T13:08:37.600Z,21.21
2023-10-10T13:09:43.377Z,21.22
2023-10-10T13:10:48.967Z,21.21
2023-10-10T13:11:54.517Z,21.2
2023-10-10T13:13:00.370Z,21.22
2023-10-10T13:14:06.147Z,21.21
2023-10-10T13:15:11.688Z,21.21
2023-10-10T13:16:17.354Z,21.21
2023-10-10T13:17:23.028Z,21.2
2023-10-10T13:18:28.964Z,21.2
2023-10-10T13:19:35.810Z,21.2
2023-10-10T13:20:41.392Z,21.22
2023-10-10T13:21:47.175Z,21.2
2023-10-10T13:22:52.797Z,21.2
2023-10-10T13:23:59.424Z,21.18
2023-10-10T13:25:05.300Z,21.18
2023-10-10T13:26:10.902Z,21.18
2023-10-10T13:27:16.432Z,21.2
2023-10-10T13:28:22.484Z,21.21
2023-10-10T13:29:28.217Z,21.22
2023-10-10T13:30:33.813Z,21.24
2023-10-10T13:31:39.590Z,21.25
2023-10-10T13:32:45.421Z,21.27
2023-10-10T13:33:51.192Z,21.27
2023-10-10T13:34:56.952Z,21.29
2023-10-10T13:36:02.544Z,21.32
2023-10-10T13:37:08.283Z,21.32
2023-10-10T13:38:13.819Z,21.32
2023-10-10T13:39:19.423Z,21.33
2023-10-10T13:40:24.962Z,21.33
2023-10-10T13:41:30.573Z,21.34
2023-10-10T13:42:36.228Z,21.33
2023-10-10T13:43:41.757Z,21.34
2023-10-10T13:44:47.323Z,21.35
2023-10-10T13:45:53.111Z,21.34
2023-10-10T13:46:58.686Z,21.35
2023-10-10T13:48:04.381Z,21.35
2023-10-10T13:49:12.423Z,21.34
2023-10-10T13:50:18.037Z,21.34
2023-10-10T13:51:23.638Z,21.34
2023-10-10T13:52:29.171Z,21.35
2023-10-10T13:53:34.708Z,21.34
2023-10-10T13:54:40.415Z,21.34
2023-10-10T13:55:46.048Z,21.34
2023-10-10T13:56:51.701Z,21.34
2023-10-10T13:57:57.312Z,21.33
2023-10-10T13:59:02.868Z,21.33
2023-10-10T14:00:08.536Z,21.33
2023-10-10T14:01:14.302Z,21.33
2023-10-10T14:02:20.339Z,21.33
2023-10-10T14:03:26.585Z,21.31
2023-10-10T14:04:32.606Z,21.31
2023-10-10T14:05:38.567Z,21.31
2023-10-10T14:06:44.380Z,21.31
2023-10-10T14:07:50.315Z,21.31
2023-10-10T14:08:55.931Z,21.29
2023-10-10T14:10:03.179Z,21.28
2023-10-10T14:11:09.238Z,21.28